Flugplatz Oehna

Für EDBO sind keine METAR/TAF Berichte vorhanden.
Es werden die Flugwettermeldungen vom Flugplatz Holzdorf Airport in 16 km Entfernung angezeigt.

Bericht für ETSH

vom 01.12. um 09:20 UTC

Wind 11 kt aus 220°

Sichtweite 10 km oder mehr

gering bewölkt in 1000 ft

aufgebrochene Bewölkung in 2100 ft

Temperatur 6.0°C

Taupunkt 4.0°C

Luftfeuchtigkeit 87%

Luftdruck 995 hPa

ETSH 010920Z 22011KT 9999 FEW010 BKN021 06/04 Q0995 WHT WHT

Prognose für ETSH

vom 01.12. um 08:22 UTC

Zwischen 09:00 UTC und 18:00 UTC

Wind 12 kt aus 200° in Böen 22 kt

Sichtweite 10 km oder mehr

keine signifikanten Wettererscheinungen

aufgelockert bewölkt in 1000 ft

aufgebrochene Bewölkung in 2500 ft


Zwischen 09:00 UTC und 18:00 UTC zeitweise

Wind 15 kt aus 220° in Böen 28 kt

Sichtweite 6000 m

schwacher Regen

schwacher Sprühregen

aufgelockert bewölkt in 800 ft

aufgebrochene Bewölkung in 1500 ft

TAF ETSH 010822Z 0109/0118 20012G22KT 9999 NSW SCT010 BKN025 TEMPO 0109/0118 22015G28KT 6000 -RADZ SCT008 BKN015
Impressum